sensor_id;sensor_type;location;lat;lon;timestamp;temperature;humidity
38514;DHT22;24282;48.400;10.808;2023-04-30T00:01:05;11.90;80.10
38514;DHT22;24282;48.400;10.808;2023-04-30T00:03:31;11.90;80.30
38514;DHT22;24282;48.400;10.808;2023-04-30T00:05:57;11.80;80.30
38514;DHT22;24282;48.400;10.808;2023-04-30T00:08:25;11.80;80.30
38514;DHT22;24282;48.400;10.808;2023-04-30T00:10:51;11.80;80.30
38514;DHT22;24282;48.400;10.808;2023-04-30T00:13:17;11.80;80.40
38514;DHT22;24282;48.400;10.808;2023-04-30T00:15:43;11.80;80.30
38514;DHT22;24282;48.400;10.808;2023-04-30T00:18:09;11.80;80.20
38514;DHT22;24282;48.400;10.808;2023-04-30T00:20:35;11.80;80.20
38514;DHT22;24282;48.400;10.808;2023-04-30T00:23:00;11.70;80.00
38514;DHT22;24282;48.400;10.808;2023-04-30T00:25:26;11.70;80.10
38514;DHT22;24282;48.400;10.808;2023-04-30T00:27:52;11.70;80.10
38514;DHT22;24282;48.400;10.808;2023-04-30T00:30:17;11.70;80.10
38514;DHT22;24282;48.400;10.808;2023-04-30T00:32:43;11.70;80.00
38514;DHT22;24282;48.400;10.808;2023-04-30T00:35:10;11.70;80.10
38514;DHT22;24282;48.400;10.808;2023-04-30T00:37:36;11.70;80.00
38514;DHT22;24282;48.400;10.808;2023-04-30T00:40:02;11.60;79.90
38514;DHT22;24282;48.400;10.808;2023-04-30T00:42:28;11.60;79.90
38514;DHT22;24282;48.400;10.808;2023-04-30T00:44:54;11.60;79.80
38514;DHT22;24282;48.400;10.808;2023-04-30T00:47:19;11.70;79.90
38514;DHT22;24282;48.400;10.808;2023-04-30T00:49:45;11.70;79.90
38514;DHT22;24282;48.400;10.808;2023-04-30T00:52:12;11.70;79.90
38514;DHT22;24282;48.400;10.808;2023-04-30T00:54:37;11.70;80.00
38514;DHT22;24282;48.400;10.808;2023-04-30T00:57:04;11.60;80.00
38514;DHT22;24282;48.400;10.808;2023-04-30T00:59:32;11.60;80.10
38514;DHT22;24282;48.400;10.808;2023-04-30T01:01:58;11.60;80.20
38514;DHT22;24282;48.400;10.808;2023-04-30T01:04:23;11.60;80.20
38514;DHT22;24282;48.400;10.808;2023-04-30T01:06:50;11.60;80.00
38514;DHT22;24282;48.400;10.808;2023-04-30T01:09:16;11.60;79.80
38514;DHT22;24282;48.400;10.808;2023-04-30T01:11:55;11.60;79.80
38514;DHT22;24282;48.400;10.808;2023-04-30T01:14:27;11.60;80.10
38514;DHT22;24282;48.400;10.808;2023-04-30T01:19:55;11.60;80.00
38514;DHT22;24282;48.400;10.808;2023-04-30T01:30:16;11.50;79.90
38514;DHT22;24282;48.400;10.808;2023-04-30T01:32:42;11.50;80.20
38514;DHT22;24282;48.400;10.808;2023-04-30T01:35:08;11.50;80.00
38514;DHT22;24282;48.400;10.808;2023-04-30T01:38:09;11.50;80.20
38514;DHT22;24282;48.400;10.808;2023-04-30T01:40:49;11.50;80.20
38514;DHT22;24282;48.400;10.808;2023-04-30T01:43:23;11.50;80.30
38514;DHT22;24282;48.400;10.808;2023-04-30T01:46:18;11.50;80.30
38514;DHT22;24282;48.400;10.808;2023-04-30T01:51:31;11.50;80.20
38514;DHT22;24282;48.400;10.808;2023-04-30T01:54:07;11.50;80.30
38514;DHT22;24282;48.400;10.808;2023-04-30T01:56:40;11.50;80.30
38514;DHT22;24282;48.400;10.808;2023-04-30T01:59:08;11.50;80.40
38514;DHT22;24282;48.400;10.808;2023-04-30T02:01:34;11.50;80.50
38514;DHT22;24282;48.400;10.808;2023-04-30T02:04:00;11.50;80.50
38514;DHT22;24282;48.400;10.808;2023-04-30T02:06:26;11.50;80.50
38514;DHT22;24282;48.400;10.808;2023-04-30T02:08:56;11.50;80.50
38514;DHT22;24282;48.400;10.808;2023-04-30T02:11:27;11.50;80.50
38514;DHT22;24282;48.400;10.808;2023-04-30T02:13:53;11.50;80.50
38514;DHT22;24282;48.400;10.808;2023-04-30T02:16:19;11.50;80.40
38514;DHT22;24282;48.400;10.808;2023-04-30T02:18:45;11.40;80.30
38514;DHT22;24282;48.400;10.808;2023-04-30T02:21:11;11.50;80.30
38514;DHT22;24282;48.400;10.808;2023-04-30T02:23:37;11.40;80.40
38514;DHT22;24282;48.400;10.808;2023-04-30T02:26:02;11.50;80.50
38514;DHT22;24282;48.400;10.808;2023-04-30T02:28:28;11.40;80.60
38514;DHT22;24282;48.400;10.808;2023-04-30T02:30:54;11.40;80.80
38514;DHT22;24282;48.400;10.808;2023-04-30T02:33:19;11.40;80.90
38514;DHT22;24282;48.400;10.808;2023-04-30T02:35:45;11.40;80.90
38514;DHT22;24282;48.400;10.808;2023-04-30T02:38:11;11.40;80.90
38514;DHT22;24282;48.400;10.808;2023-04-30T02:40:37;11.40;81.00
38514;DHT22;24282;48.400;10.808;2023-04-30T02:43:02;11.40;81.10
38514;DHT22;24282;48.400;10.808;2023-04-30T02:45:33;11.40;81.20
38514;DHT22;24282;48.400;10.808;2023-04-30T02:47:58;11.40;81.30
38514;DHT22;24282;48.400;10.808;2023-04-30T02:50:24;11.40;81.30
38514;DHT22;24282;48.400;10.808;2023-04-30T02:52:50;11.40;81.30
38514;DHT22;24282;48.400;10.808;2023-04-30T02:55:16;11.40;81.20
38514;DHT22;24282;48.400;10.808;2023-04-30T02:57:41;11.40;81.20
38514;DHT22;24282;48.400;10.808;2023-04-30T03:00:08;11.40;81.10
38514;DHT22;24282;48.400;10.808;2023-04-30T03:02:34;11.40;80.90
38514;DHT22;24282;48.400;10.808;2023-04-30T03:05:02;11.40;80.80
38514;DHT22;24282;48.400;10.808;2023-04-30T03:07:28;11.40;80.80
38514;DHT22;24282;48.400;10.808;2023-04-30T03:09:54;11.40;80.80
38514;DHT22;24282;48.400;10.808;2023-04-30T03:12:20;11.30;80.70
38514;DHT22;24282;48.400;10.808;2023-04-30T03:14:45;11.40;80.80
38514;DHT22;24282;48.400;10.808;2023-04-30T03:17:12;11.30;80.90
38514;DHT22;24282;48.400;10.808;2023-04-30T03:19:38;11.30;81.00
38514;DHT22;24282;48.400;10.808;2023-04-30T03:22:03;11.30;81.10
38514;DHT22;24282;48.400;10.808;2023-04-30T03:24:29;11.30;80.90
38514;DHT22;24282;48.400;10.808;2023-04-30T03:26:55;11.30;81.10
38514;DHT22;24282;48.400;10.808;2023-04-30T03:29:21;11.30;80.90
38514;DHT22;24282;48.400;10.808;2023-04-30T03:31:47;11.20;81.00
38514;DHT22;24282;48.400;10.808;2023-04-30T03:34:13;11.30;80.90
38514;DHT22;24282;48.400;10.808;2023-04-30T03:36:39;11.30;80.80
38514;DHT22;24282;48.400;10.808;2023-04-30T03:39:04;11.20;80.60
38514;DHT22;24282;48.400;10.808;2023-04-30T03:41:30;11.20;80.60
38514;DHT22;24282;48.400;10.808;2023-04-30T03:43:56;11.20;80.40
38514;DHT22;24282;48.400;10.808;2023-04-30T03:46:22;11.20;80.20
38514;DHT22;24282;48.400;10.808;2023-04-30T03:48:47;11.20;80.00
38514;DHT22;24282;48.400;10.808;2023-04-30T03:51:13;11.20;80.00
38514;DHT22;24282;48.400;10.808;2023-04-30T03:53:39;11.20;80.00
38514;DHT22;24282;48.400;10.808;2023-04-30T03:56:05;11.10;79.70
38514;DHT22;24282;48.400;10.808;2023-04-30T03:58:31;11.10;79.70
38514;DHT22;24282;48.400;10.808;2023-04-30T04:00:57;11.10;79.70
38514;DHT22;24282;48.400;10.808;2023-04-30T04:03:23;11.10;79.60
38514;DHT22;24282;48.400;10.808;2023-04-30T04:05:48;11.10;79.70
38514;DHT22;24282;48.400;10.808;2023-04-30T04:08:14;11.10;79.70
38514;DHT22;24282;48.400;10.808;2023-04-30T04:10:40;11.00;79.80
38514;DHT22;24282;48.400;10.808;2023-04-30T04:13:07;11.00;79.90
38514;DHT22;24282;48.400;10.808;2023-04-30T04:15:33;11.00;79.80
38514;DHT22;24282;48.400;10.808;2023-04-30T04:18:00;11.00;79.80
38514;DHT22;24282;48.400;10.808;2023-04-30T04:20:26;11.00;79.90
38514;DHT22;24282;48.400;10.808;2023-04-30T04:22:53;11.00;79.60
38514;DHT22;24282;48.400;10.808;2023-04-30T04:25:19;11.00;79.60
38514;DHT22;24282;48.400;10.808;2023-04-30T04:27:45;11.00;79.50
38514;DHT22;24282;48.400;10.808;2023-04-30T04:30:11;11.00;79.20
38514;DHT22;24282;48.400;10.808;2023-04-30T04:32:38;11.00;79.10
38514;DHT22;24282;48.400;10.808;2023-04-30T04:35:13;11.00;79.30
38514;DHT22;24282;48.400;10.808;2023-04-30T04:37:40;11.00;79.30
38514;DHT22;24282;48.400;10.808;2023-04-30T04:40:07;10.90;79.40
38514;DHT22;24282;48.400;10.808;2023-04-30T04:42:33;11.00;79.30
38514;DHT22;24282;48.400;10.808;2023-04-30T04:45:00;10.90;79.10
38514;DHT22;24282;48.400;10.808;2023-04-30T04:47:26;11.00;79.00
38514;DHT22;24282;48.400;10.808;2023-04-30T04:49:52;10.90;79.20
38514;DHT22;24282;48.400;10.808;2023-04-30T04:52:17;10.90;79.30
38514;DHT22;24282;48.400;10.808;2023-04-30T04:54:43;11.00;79.20
38514;DHT22;24282;48.400;10.808;2023-04-30T04:57:09;10.90;79.10
38514;DHT22;24282;48.400;10.808;2023-04-30T04:59:35;10.90;79.00
38514;DHT22;24282;48.400;10.808;2023-04-30T05:02:01;11.00;78.90
38514;DHT22;24282;48.400;10.808;2023-04-30T05:04:26;11.00;79.00
38514;DHT22;24282;48.400;10.808;2023-04-30T05:06:52;11.00;78.70
38514;DHT22;24282;48.400;10.808;2023-04-30T05:09:19;11.00;78.90
38514;DHT22;24282;48.400;10.808;2023-04-30T05:11:45;11.00;78.80
38514;DHT22;24282;48.400;10.808;2023-04-30T05:14:12;11.00;78.90
38514;DHT22;24282;48.400;10.808;2023-04-30T05:16:38;11.00;78.90
38514;DHT22;24282;48.400;10.808;2023-04-30T05:19:03;11.10;78.90
38514;DHT22;24282;48.400;10.808;2023-04-30T05:21:29;11.10;78.80
38514;DHT22;24282;48.400;10.808;2023-04-30T05:23:56;11.10;78.60
38514;DHT22;24282;48.400;10.808;2023-04-30T05:26:22;11.10;78.50
38514;DHT22;24282;48.400;10.808;2023-04-30T05:28:51;11.10;78.60
38514;DHT22;24282;48.400;10.808;2023-04-30T05:31:17;11.10;78.80
38514;DHT22;24282;48.400;10.808;2023-04-30T05:33:43;11.10;78.90
38514;DHT22;24282;48.400;10.808;2023-04-30T05:36:12;11.20;78.90
38514;DHT22;24282;48.400;10.808;2023-04-30T05:38:38;11.10;78.70
38514;DHT22;24282;48.400;10.808;2023-04-30T05:41:04;11.10;78.60
38514;DHT22;24282;48.400;10.808;2023-04-30T05:43:29;11.20;78.70
38514;DHT22;24282;48.400;10.808;2023-04-30T05:45:55;11.20;78.20
38514;DHT22;24282;48.400;10.808;2023-04-30T05:48:21;11.20;78.10
38514;DHT22;24282;48.400;10.808;2023-04-30T05:50:47;11.20;78.00
38514;DHT22;24282;48.400;10.808;2023-04-30T05:53:13;11.20;77.30
38514;DHT22;24282;48.400;10.808;2023-04-30T05:55:38;11.20;77.40
38514;DHT22;24282;48.400;10.808;2023-04-30T05:58:04;11.30;77.40
38514;DHT22;24282;48.400;10.808;2023-04-30T06:00:30;11.40;76.30
38514;DHT22;24282;48.400;10.808;2023-04-30T06:02:56;11.40;76.70
38514;DHT22;24282;48.400;10.808;2023-04-30T06:05:22;11.40;76.90
38514;DHT22;24282;48.400;10.808;2023-04-30T06:07:47;11.40;76.70
38514;DHT22;24282;48.400;10.808;2023-04-30T06:10:13;11.40;76.10
38514;DHT22;24282;48.400;10.808;2023-04-30T06:12:39;11.40;76.10
38514;DHT22;24282;48.400;10.808;2023-04-30T06:15:05;11.40;75.90
38514;DHT22;24282;48.400;10.808;2023-04-30T06:17:31;11.40;76.10
38514;DHT22;24282;48.400;10.808;2023-04-30T06:19:57;11.50;76.30
38514;DHT22;24282;48.400;10.808;2023-04-30T06:22:27;11.50;76.40
38514;DHT22;24282;48.400;10.808;2023-04-30T06:24:53;11.50;76.10
38514;DHT22;24282;48.400;10.808;2023-04-30T06:27:19;11.60;75.70
38514;DHT22;24282;48.400;10.808;2023-04-30T06:29:44;11.60;75.80
38514;DHT22;24282;48.400;10.808;2023-04-30T06:32:10;11.70;76.00
38514;DHT22;24282;48.400;10.808;2023-04-30T06:34:37;11.70;75.80
38514;DHT22;24282;48.400;10.808;2023-04-30T06:37:03;11.70;75.80
38514;DHT22;24282;48.400;10.808;2023-04-30T06:39:28;11.70;75.70
38514;DHT22;24282;48.400;10.808;2023-04-30T06:41:55;11.80;75.50
38514;DHT22;24282;48.400;10.808;2023-04-30T06:44:20;11.90;75.40
38514;DHT22;24282;48.400;10.808;2023-04-30T06:46:46;11.90;75.40
38514;DHT22;24282;48.400;10.808;2023-04-30T06:49:12;11.90;75.30
38514;DHT22;24282;48.400;10.808;2023-04-30T06:51:40;11.90;75.10
38514;DHT22;24282;48.400;10.808;2023-04-30T06:54:06;12.00;75.00
38514;DHT22;24282;48.400;10.808;2023-04-30T06:56:32;12.00;74.80
38514;DHT22;24282;48.400;10.808;2023-04-30T06:58:58;12.10;75.10
38514;DHT22;24282;48.400;10.808;2023-04-30T07:01:24;12.10;75.20
38514;DHT22;24282;48.400;10.808;2023-04-30T07:03:49;12.10;74.50
38514;DHT22;24282;48.400;10.808;2023-04-30T07:06:17;12.20;74.30
38514;DHT22;24282;48.400;10.808;2023-04-30T07:08:42;12.20;74.50
38514;DHT22;24282;48.400;10.808;2023-04-30T07:11:08;12.30;74.60
38514;DHT22;24282;48.400;10.808;2023-04-30T07:13:34;12.30;74.10
38514;DHT22;24282;48.400;10.808;2023-04-30T07:16:00;12.40;74.20
38514;DHT22;24282;48.400;10.808;2023-04-30T07:18:25;12.40;74.20
38514;DHT22;24282;48.400;10.808;2023-04-30T07:20:51;12.40;74.20
38514;DHT22;24282;48.400;10.808;2023-04-30T07:23:17;12.40;74.00
38514;DHT22;24282;48.400;10.808;2023-04-30T07:25:42;12.40;74.10
38514;DHT22;24282;48.400;10.808;2023-04-30T07:28:08;12.40;74.20
38514;DHT22;24282;48.400;10.808;2023-04-30T07:30:34;12.50;74.30
38514;DHT22;24282;48.400;10.808;2023-04-30T07:33:00;12.50;74.10
38514;DHT22;24282;48.400;10.808;2023-04-30T07:35:25;12.60;73.90
38514;DHT22;24282;48.400;10.808;2023-04-30T07:37:51;12.50;73.70
38514;DHT22;24282;48.400;10.808;2023-04-30T07:40:17;12.60;73.80
38514;DHT22;24282;48.400;10.808;2023-04-30T07:42:42;12.60;73.80
38514;DHT22;24282;48.400;10.808;2023-04-30T07:45:09;12.60;73.30
38514;DHT22;24282;48.400;10.808;2023-04-30T07:47:37;12.60;73.40
38514;DHT22;24282;48.400;10.808;2023-04-30T07:50:03;12.70;73.40
38514;DHT22;24282;48.400;10.808;2023-04-30T07:52:29;12.80;73.60
38514;DHT22;24282;48.400;10.808;2023-04-30T07:54:55;13.00;73.40
38514;DHT22;24282;48.400;10.808;2023-04-30T07:57:21;13.10;72.60
38514;DHT22;24282;48.400;10.808;2023-04-30T07:59:46;13.20;72.00
38514;DHT22;24282;48.400;10.808;2023-04-30T08:02:12;13.40;71.70
38514;DHT22;24282;48.400;10.808;2023-04-30T08:04:37;13.40;72.00
38514;DHT22;24282;48.400;10.808;2023-04-30T08:07:03;13.50;72.20
38514;DHT22;24282;48.400;10.808;2023-04-30T08:09:29;13.70;71.50
38514;DHT22;24282;48.400;10.808;2023-04-30T08:11:55;13.80;70.40
38514;DHT22;24282;48.400;10.808;2023-04-30T08:14:21;13.90;70.40
38514;DHT22;24282;48.400;10.808;2023-04-30T08:16:46;14.00;70.50
38514;DHT22;24282;48.400;10.808;2023-04-30T08:19:12;14.20;70.60
38514;DHT22;24282;48.400;10.808;2023-04-30T08:21:38;14.30;69.80
38514;DHT22;24282;48.400;10.808;2023-04-30T08:24:04;14.40;69.50
38514;DHT22;24282;48.400;10.808;2023-04-30T08:26:30;14.30;69.00
38514;DHT22;24282;48.400;10.808;2023-04-30T08:28:56;14.40;69.30
38514;DHT22;24282;48.400;10.808;2023-04-30T08:31:21;14.50;68.30
38514;DHT22;24282;48.400;10.808;2023-04-30T08:33:47;14.50;68.10
38514;DHT22;24282;48.400;10.808;2023-04-30T08:36:13;14.40;68.00
38514;DHT22;24282;48.400;10.808;2023-04-30T08:38:38;14.40;66.80
38514;DHT22;24282;48.400;10.808;2023-04-30T08:41:10;14.40;67.10
38514;DHT22;24282;48.400;10.808;2023-04-30T08:43:36;14.40;67.50
38514;DHT22;24282;48.400;10.808;2023-04-30T08:46:03;14.60;68.20
38514;DHT22;24282;48.400;10.808;2023-04-30T08:48:30;14.90;68.20
38514;DHT22;24282;48.400;10.808;2023-04-30T08:50:59;15.20;66.70
38514;DHT22;24282;48.400;10.808;2023-04-30T08:53:25;15.20;65.10
38514;DHT22;24282;48.400;10.808;2023-04-30T08:55:51;15.20;65.10
38514;DHT22;24282;48.400;10.808;2023-04-30T08:58:17;15.00;65.30
38514;DHT22;24282;48.400;10.808;2023-04-30T09:00:43;14.90;65.20
38514;DHT22;24282;48.400;10.808;2023-04-30T09:03:09;14.80;65.60
38514;DHT22;24282;48.400;10.808;2023-04-30T09:05:36;14.70;66.10
38514;DHT22;24282;48.400;10.808;2023-04-30T09:08:02;14.60;66.20
38514;DHT22;24282;48.400;10.808;2023-04-30T09:10:31;14.50;65.90
38514;DHT22;24282;48.400;10.808;2023-04-30T09:13:05;14.40;66.40
38514;DHT22;24282;48.400;10.808;2023-04-30T09:15:32;14.40;66.80
38514;DHT22;24282;48.400;10.808;2023-04-30T09:18:06;14.40;67.60
38514;DHT22;24282;48.400;10.808;2023-04-30T09:20:32;14.40;67.00
38514;DHT22;24282;48.400;10.808;2023-04-30T09:23:08;14.40;66.10
38514;DHT22;24282;48.400;10.808;2023-04-30T09:25:41;14.40;66.50
38514;DHT22;24282;48.400;10.808;2023-04-30T09:28:10;14.40;67.10
38514;DHT22;24282;48.400;10.808;2023-04-30T09:30:36;14.60;67.40
38514;DHT22;24282;48.400;10.808;2023-04-30T09:33:02;14.70;68.00
38514;DHT22;24282;48.400;10.808;2023-04-30T09:35:30;14.80;66.70
38514;DHT22;24282;48.400;10.808;2023-04-30T09:37:59;14.80;66.20
38514;DHT22;24282;48.400;10.808;2023-04-30T09:40:36;14.80;66.30
38514;DHT22;24282;48.400;10.808;2023-04-30T09:43:02;14.70;65.80
38514;DHT22;24282;48.400;10.808;2023-04-30T09:45:48;14.70;65.80
38514;DHT22;24282;48.400;10.808;2023-04-30T09:48:20;14.70;65.50
38514;DHT22;24282;48.400;10.808;2023-04-30T09:50:48;14.60;65.50
38514;DHT22;24282;48.400;10.808;2023-04-30T09:53:14;14.60;65.50
38514;DHT22;24282;48.400;10.808;2023-04-30T09:55:46;14.60;66.10
38514;DHT22;24282;48.400;10.808;2023-04-30T09:58:13;14.60;66.20
38514;DHT22;24282;48.400;10.808;2023-04-30T10:00:41;14.60;66.60
38514;DHT22;24282;48.400;10.808;2023-04-30T10:03:12;14.70;66.50
38514;DHT22;24282;48.400;10.808;2023-04-30T10:05:44;14.70;66.00
38514;DHT22;24282;48.400;10.808;2023-04-30T10:08:26;14.80;65.90
38514;DHT22;24282;48.400;10.808;2023-04-30T10:11:02;14.80;65.80
38514;DHT22;24282;48.400;10.808;2023-04-30T10:13:31;14.90;65.30
38514;DHT22;24282;48.400;10.808;2023-04-30T10:16:02;15.00;64.30
38514;DHT22;24282;48.400;10.808;2023-04-30T10:18:34;15.00;63.80
38514;DHT22;24282;48.400;10.808;2023-04-30T10:21:02;15.10;63.70
38514;DHT22;24282;48.400;10.808;2023-04-30T10:23:29;15.20;64.00
38514;DHT22;24282;48.400;10.808;2023-04-30T10:25:56;15.30;63.20
38514;DHT22;24282;48.400;10.808;2023-04-30T10:28:23;15.40;62.70
38514;DHT22;24282;48.400;10.808;2023-04-30T10:30:50;15.40;61.60
38514;DHT22;24282;48.400;10.808;2023-04-30T10:36:05;15.40;61.30
38514;DHT22;24282;48.400;10.808;2023-04-30T10:38:33;15.40;61.20
38514;DHT22;24282;48.400;10.808;2023-04-30T10:41:01;15.40;61.00
38514;DHT22;24282;48.400;10.808;2023-04-30T10:43:29;15.40;60.80
38514;DHT22;24282;48.400;10.808;2023-04-30T10:45:58;15.40;60.80
38514;DHT22;24282;48.400;10.808;2023-04-30T10:48:24;15.50;60.20
38514;DHT22;24282;48.400;10.808;2023-04-30T10:50:56;15.40;60.10
38514;DHT22;24282;48.400;10.808;2023-04-30T10:53:22;15.40;60.40
38514;DHT22;24282;48.400;10.808;2023-04-30T10:55:57;15.40;60.40
38514;DHT22;24282;48.400;10.808;2023-04-30T10:58:28;15.40;60.40
38514;DHT22;24282;48.400;10.808;2023-04-30T11:03:34;15.50;60.20
38514;DHT22;24282;48.400;10.808;2023-04-30T11:06:07;15.70;60.10
38514;DHT22;24282;48.400;10.808;2023-04-30T11:08:37;15.70;60.10
38514;DHT22;24282;48.400;10.808;2023-04-30T11:11:03;15.80;58.90
38514;DHT22;24282;48.400;10.808;2023-04-30T11:13:44;15.80;57.80
38514;DHT22;24282;48.400;10.808;2023-04-30T11:16:11;15.90;58.00
38514;DHT22;24282;48.400;10.808;2023-04-30T11:18:44;15.90;58.00
38514;DHT22;24282;48.400;10.808;2023-04-30T11:21:11;15.90;58.10
38514;DHT22;24282;48.400;10.808;2023-04-30T11:23:41;15.90;58.50
38514;DHT22;24282;48.400;10.808;2023-04-30T11:26:08;16.00;58.00
38514;DHT22;24282;48.400;10.808;2023-04-30T11:28:36;16.00;58.50
38514;DHT22;24282;48.400;10.808;2023-04-30T11:31:02;16.10;58.70
38514;DHT22;24282;48.400;10.808;2023-04-30T11:33:32;16.10;59.10
38514;DHT22;24282;48.400;10.808;2023-04-30T11:35:59;16.20;59.10
38514;DHT22;24282;48.400;10.808;2023-04-30T11:38:33;16.20;58.30
38514;DHT22;24282;48.400;10.808;2023-04-30T11:41:03;16.20;58.30
38514;DHT22;24282;48.400;10.808;2023-04-30T11:43:30;16.40;57.70
38514;DHT22;24282;48.400;10.808;2023-04-30T11:46:12;16.40;58.00
38514;DHT22;24282;48.400;10.808;2023-04-30T11:48:39;16.60;56.90
38514;DHT22;24282;48.400;10.808;2023-04-30T11:51:22;16.70;57.30
38514;DHT22;24282;48.400;10.808;2023-04-30T11:53:52;16.70;57.00
38514;DHT22;24282;48.400;10.808;2023-04-30T11:56:22;16.80;56.60
38514;DHT22;24282;48.400;10.808;2023-04-30T11:58:50;16.70;56.60
38514;DHT22;24282;48.400;10.808;2023-04-30T12:01:17;16.70;56.40
38514;DHT22;24282;48.400;10.808;2023-04-30T12:03:49;16.80;56.20
38514;DHT22;24282;48.400;10.808;2023-04-30T12:06:23;16.80;56.10
38514;DHT22;24282;48.400;10.808;2023-04-30T12:08:52;16.80;56.50
38514;DHT22;24282;48.400;10.808;2023-04-30T12:11:20;16.80;56.50
38514;DHT22;24282;48.400;10.808;2023-04-30T12:13:53;16.90;56.10
38514;DHT22;24282;48.400;10.808;2023-04-30T12:16:20;16.90;56.20
38514;DHT22;24282;48.400;10.808;2023-04-30T12:18:46;16.90;56.60
38514;DHT22;24282;48.400;10.808;2023-04-30T12:21:12;16.90;57.70
38514;DHT22;24282;48.400;10.808;2023-04-30T12:23:38;16.90;55.90
38514;DHT22;24282;48.400;10.808;2023-04-30T12:26:04;17.10;55.80
38514;DHT22;24282;48.400;10.808;2023-04-30T12:28:30;17.30;56.60
38514;DHT22;24282;48.400;10.808;2023-04-30T12:30:55;17.30;55.40
38514;DHT22;24282;48.400;10.808;2023-04-30T12:33:21;17.40;55.60
38514;DHT22;24282;48.400;10.808;2023-04-30T12:35:47;17.40;55.70
38514;DHT22;24282;48.400;10.808;2023-04-30T12:38:15;17.60;55.40
38514;DHT22;24282;48.400;10.808;2023-04-30T12:40:46;17.70;55.60
38514;DHT22;24282;48.400;10.808;2023-04-30T12:43:15;17.80;56.10
38514;DHT22;24282;48.400;10.808;2023-04-30T12:48:14;17.70;55.30
38514;DHT22;24282;48.400;10.808;2023-04-30T12:50:40;17.50;54.80
38514;DHT22;24282;48.400;10.808;2023-04-30T12:53:06;17.40;55.00
38514;DHT22;24282;48.400;10.808;2023-04-30T12:55:33;17.30;55.40
38514;DHT22;24282;48.400;10.808;2023-04-30T12:58:10;17.30;55.20
38514;DHT22;24282;48.400;10.808;2023-04-30T13:01:02;17.40;55.00
38514;DHT22;24282;48.400;10.808;2023-04-30T13:03:34;17.30;55.40
38514;DHT22;24282;48.400;10.808;2023-04-30T13:06:00;17.40;56.00
38514;DHT22;24282;48.400;10.808;2023-04-30T13:08:28;17.50;56.40
38514;DHT22;24282;48.400;10.808;2023-04-30T13:10:54;17.50;55.20
38514;DHT22;24282;48.400;10.808;2023-04-30T13:13:20;17.60;54.10
38514;DHT22;24282;48.400;10.808;2023-04-30T13:15:46;17.60;54.20
38514;DHT22;24282;48.400;10.808;2023-04-30T13:18:12;17.70;55.10
38514;DHT22;24282;48.400;10.808;2023-04-30T13:20:40;17.80;53.80
38514;DHT22;24282;48.400;10.808;2023-04-30T13:23:06;18.00;53.20
38514;DHT22;24282;48.400;10.808;2023-04-30T13:25:32;18.20;53.30
38514;DHT22;24282;48.400;10.808;2023-04-30T13:27:59;18.40;53.10
38514;DHT22;24282;48.400;10.808;2023-04-30T13:30:25;18.60;51.60
38514;DHT22;24282;48.400;10.808;2023-04-30T13:32:51;18.90;52.00
38514;DHT22;24282;48.400;10.808;2023-04-30T13:35:17;19.00;51.80
38514;DHT22;24282;48.400;10.808;2023-04-30T13:37:43;19.10;51.50
38514;DHT22;24282;48.400;10.808;2023-04-30T13:40:10;18.90;50.20
38514;DHT22;24282;48.400;10.808;2023-04-30T13:42:36;18.80;50.60
38514;DHT22;24282;48.400;10.808;2023-04-30T13:45:06;18.60;49.90
38514;DHT22;24282;48.400;10.808;2023-04-30T13:47:32;18.40;50.60
38514;DHT22;24282;48.400;10.808;2023-04-30T13:49:59;18.40;50.80
38514;DHT22;24282;48.400;10.808;2023-04-30T13:52:25;18.40;50.40
38514;DHT22;24282;48.400;10.808;2023-04-30T13:54:51;18.40;50.60
38514;DHT22;24282;48.400;10.808;2023-04-30T13:57:17;18.40;50.60
38514;DHT22;24282;48.400;10.808;2023-04-30T13:59:42;18.40;50.10
38514;DHT22;24282;48.400;10.808;2023-04-30T14:02:09;18.50;51.10
38514;DHT22;24282;48.400;10.808;2023-04-30T14:04:35;18.40;52.00
38514;DHT22;24282;48.400;10.808;2023-04-30T14:07:02;18.30;51.70
38514;DHT22;24282;48.400;10.808;2023-04-30T14:09:29;18.20;51.70
38514;DHT22;24282;48.400;10.808;2023-04-30T14:11:55;18.20;52.30
38514;DHT22;24282;48.400;10.808;2023-04-30T14:14:26;18.30;52.50
38514;DHT22;24282;48.400;10.808;2023-04-30T14:16:52;18.40;51.50
38514;DHT22;24282;48.400;10.808;2023-04-30T14:19:19;18.60;51.00
38514;DHT22;24282;48.400;10.808;2023-04-30T14:21:44;18.60;50.60
38514;DHT22;24282;48.400;10.808;2023-04-30T14:24:11;18.60;51.10
38514;DHT22;24282;48.400;10.808;2023-04-30T14:26:38;18.70;51.10
38514;DHT22;24282;48.400;10.808;2023-04-30T14:29:05;18.50;50.30
38514;DHT22;24282;48.400;10.808;2023-04-30T14:31:31;18.40;50.90
38514;DHT22;24282;48.400;10.808;2023-04-30T14:33:57;18.30;51.30
38514;DHT22;24282;48.400;10.808;2023-04-30T14:36:23;18.30;51.60
38514;DHT22;24282;48.400;10.808;2023-04-30T14:38:49;18.30;51.70
38514;DHT22;24282;48.400;10.808;2023-04-30T14:41:14;18.20;51.80
38514;DHT22;24282;48.400;10.808;2023-04-30T14:43:40;18.20;52.00
38514;DHT22;24282;48.400;10.808;2023-04-30T14:46:06;18.10;53.00
38514;DHT22;24282;48.400;10.808;2023-04-30T14:48:32;18.00;53.20
38514;DHT22;24282;48.400;10.808;2023-04-30T14:50:58;17.90;53.10
38514;DHT22;24282;48.400;10.808;2023-04-30T14:53:25;17.90;55.20
38514;DHT22;24282;48.400;10.808;2023-04-30T14:55:51;17.80;54.80
38514;DHT22;24282;48.400;10.808;2023-04-30T14:58:17;17.70;54.20
38514;DHT22;24282;48.400;10.808;2023-04-30T15:00:44;17.70;54.50
38514;DHT22;24282;48.400;10.808;2023-04-30T15:03:11;17.60;54.50
38514;DHT22;24282;48.400;10.808;2023-04-30T15:05:37;17.60;53.90
38514;DHT22;24282;48.400;10.808;2023-04-30T15:08:02;17.50;53.30
38514;DHT22;24282;48.400;10.808;2023-04-30T15:10:28;17.40;52.90
38514;DHT22;24282;48.400;10.808;2023-04-30T15:12:54;17.40;53.00
38514;DHT22;24282;48.400;10.808;2023-04-30T15:15:20;17.30;53.30
38514;DHT22;24282;48.400;10.808;2023-04-30T15:17:49;17.30;52.60
38514;DHT22;24282;48.400;10.808;2023-04-30T15:20:15;17.20;52.30
38514;DHT22;24282;48.400;10.808;2023-04-30T15:22:40;17.20;53.30
38514;DHT22;24282;48.400;10.808;2023-04-30T15:25:07;17.20;53.40
38514;DHT22;24282;48.400;10.808;2023-04-30T15:27:33;17.30;53.10
38514;DHT22;24282;48.400;10.808;2023-04-30T15:29:59;17.30;53.20
38514;DHT22;24282;48.400;10.808;2023-04-30T15:32:25;17.30;53.80
38514;DHT22;24282;48.400;10.808;2023-04-30T15:34:50;17.40;53.40
38514;DHT22;24282;48.400;10.808;2023-04-30T15:37:59;17.40;53.10